Terminal Aerodrome Forecast
Issued by NWS

Home | Current Version | Previous Version | Text Only | Print | Product List | Glossary On
Versions: 1 2 3 4 5 6 7 8 9 10 11 12 13 14 15 16 17 18 19 20 21 22 23 24 25 26 27 28 29
000
FTAK31 PAFA 020540
TAFAOM
TAF
PAOM 020540Z 0206/0306 22010KT P6SM VCSH BKN007 OVC010
     FM021200 21010KT 4SM -SHRA BR OVC007
     FM022000 21012KT 6SM BR VCSH SCT008 OVC015=

USA.gov is the U.S. government's official web portal to all federal, state and local government web resources and services.